createdAt,value
2023-08-08T00:01:43.989Z,12.80
2023-08-08T00:07:45.702Z,12.70
2023-08-08T00:13:47.413Z,12.70
2023-08-08T00:19:49.070Z,12.70
2023-08-08T00:25:52.149Z,12.80
2023-08-08T00:31:53.876Z,12.80
2023-08-08T00:37:55.515Z,12.80
2023-08-08T00:43:57.210Z,12.80
2023-08-08T00:49:58.856Z,12.70
2023-08-08T00:56:00.891Z,12.70
2023-08-08T01:02:03.127Z,12.70
2023-08-08T01:08:05.888Z,12.70
2023-08-08T01:14:08.903Z,12.70
2023-08-08T01:20:11.259Z,12.70
2023-08-08T01:26:13.298Z,12.70
2023-08-08T01:32:15.115Z,12.60
2023-08-08T01:38:27.445Z,12.70
2023-08-08T01:44:29.569Z,12.70
2023-08-08T01:50:31.282Z,12.70
2023-08-08T01:56:32.970Z,12.70
2023-08-08T02:02:36.606Z,12.80
2023-08-08T02:08:38.537Z,12.90
2023-08-08T02:14:40.309Z,12.90
2023-08-08T02:20:42.006Z,12.90
2023-08-08T02:26:43.648Z,12.90
2023-08-08T02:32:45.400Z,13.00
2023-08-08T02:38:47.120Z,13.00
2023-08-08T02:44:48.895Z,13.00
2023-08-08T02:50:50.544Z,13.00
2023-08-08T02:56:52.227Z,13.00
2023-08-08T03:02:54.044Z,13.00
2023-08-08T03:08:55.768Z,13.00
2023-08-08T03:14:58.001Z,13.00
2023-08-08T03:20:59.740Z,12.90
2023-08-08T03:27:01.426Z,12.90
2023-08-08T03:33:03.169Z,13.00
2023-08-08T03:39:05.001Z,13.00
2023-08-08T03:45:07.085Z,13.00
2023-08-08T03:51:08.835Z,12.80
2023-08-08T03:57:10.508Z,12.90
2023-08-08T04:03:13.341Z,12.90
2023-08-08T04:09:16.999Z,12.80
2023-08-08T04:15:18.678Z,12.80
2023-08-08T04:21:20.389Z,12.80
2023-08-08T04:27:22.062Z,12.80
2023-08-08T04:33:23.729Z,12.90
2023-08-08T04:39:25.407Z,12.90
2023-08-08T04:45:28.390Z,12.90
2023-08-08T04:51:30.069Z,12.90
2023-08-08T04:57:31.847Z,12.90
2023-08-08T05:03:33.610Z,12.90
2023-08-08T05:09:35.377Z,13.00
2023-08-08T05:15:37.054Z,13.00
2023-08-08T05:21:38.787Z,13.00
2023-08-08T05:27:40.686Z,13.10
2023-08-08T05:33:42.878Z,13.10
2023-08-08T05:39:45.412Z,13.10
2023-08-08T05:45:47.120Z,13.20
2023-08-08T05:51:48.839Z,13.30
2023-08-08T05:57:50.523Z,13.40
2023-08-08T06:03:52.211Z,13.50
2023-08-08T06:09:53.876Z,13.50
2023-08-08T06:15:55.626Z,13.70
2023-08-08T06:21:57.488Z,13.80
2023-08-08T06:27:59.247Z,13.90
2023-08-08T06:34:01.026Z,14.00
2023-08-08T06:40:02.900Z,14.30
2023-08-08T06:46:04.650Z,14.50
2023-08-08T06:52:06.748Z,14.60
2023-08-08T06:58:08.460Z,14.70
2023-08-08T07:04:10.213Z,14.80
2023-08-08T07:10:13.665Z,14.80
2023-08-08T07:16:15.578Z,15.00
2023-08-08T07:22:17.323Z,15.30
2023-08-08T07:28:19.263Z,15.30
2023-08-08T07:34:21.474Z,15.30
2023-08-08T07:40:23.152Z,15.30
2023-08-08T07:46:24.910Z,15.40
2023-08-08T07:52:26.639Z,15.40
2023-08-08T07:58:28.419Z,15.30
2023-08-08T08:04:30.188Z,15.10
2023-08-08T08:10:32.075Z,15.10
2023-08-08T08:16:34.305Z,15.40
2023-08-08T08:22:36.234Z,15.80
2023-08-08T08:28:38.206Z,15.30
2023-08-08T08:34:39.997Z,14.90
2023-08-08T08:40:42.344Z,14.70
2023-08-08T08:46:45.696Z,14.70
2023-08-08T08:52:47.780Z,15.00
2023-08-08T08:58:49.466Z,14.90
2023-08-08T09:04:51.693Z,14.70
2023-08-08T09:10:53.577Z,14.50
2023-08-08T09:16:55.595Z,14.70
2023-08-08T09:22:57.985Z,15.30
2023-08-08T09:28:59.752Z,16.10
2023-08-08T09:35:01.669Z,16.60
2023-08-08T09:41:03.408Z,16.80
2023-08-08T09:47:05.392Z,16.70
2023-08-08T09:53:07.645Z,16.60
2023-08-08T09:59:10.563Z,16.20
2023-08-08T10:05:14.021Z,16.00
2023-08-08T10:11:15.937Z,16.30
2023-08-08T10:17:18.199Z,16.60
2023-08-08T10:23:20.116Z,17.40
2023-08-08T10:29:22.035Z,17.80
2023-08-08T10:35:25.697Z,18.00
2023-08-08T10:41:27.671Z,17.90
2023-08-08T10:47:34.573Z,18.10
2023-08-08T10:53:37.359Z,17.70
2023-08-08T10:59:39.546Z,17.30
2023-08-08T11:05:45.883Z,17.00
2023-08-08T11:11:47.886Z,16.90
2023-08-08T11:17:49.867Z,16.90
2023-08-08T11:23:51.586Z,17.10
2023-08-08T11:29:53.588Z,17.60
2023-08-08T11:35:55.454Z,17.70
2023-08-08T11:41:59.566Z,17.40
2023-08-08T11:48:02.643Z,17.60
2023-08-08T11:54:07.287Z,18.20
2023-08-08T12:00:09.998Z,18.40
2023-08-08T12:06:17.974Z,18.10
2023-08-08T12:12:20.791Z,17.50
2023-08-08T12:18:23.198Z,17.10
2023-08-08T12:24:25.088Z,16.30
2023-08-08T12:30:26.908Z,16.20
2023-08-08T12:36:28.642Z,16.80
2023-08-08T12:42:30.406Z,17.20
2023-08-08T12:48:32.413Z,17.90
2023-08-08T12:54:34.136Z,18.60
2023-08-08T13:00:35.840Z,18.80
2023-08-08T13:06:37.866Z,18.90
2023-08-08T13:12:39.621Z,18.90
2023-08-08T13:18:41.483Z,18.80
2023-08-08T13:24:43.182Z,18.50
2023-08-08T13:30:44.928Z,18.10
2023-08-08T13:36:46.632Z,17.60
2023-08-08T13:42:49.244Z,17.30
2023-08-08T13:48:51.061Z,17.50
2023-08-08T13:54:52.825Z,17.70
2023-08-08T14:00:55.635Z,17.70
2023-08-08T14:06:57.285Z,17.90
2023-08-08T14:12:58.972Z,17.90
2023-08-08T14:19:00.619Z,17.90
2023-08-08T14:25:02.419Z,17.80
2023-08-08T14:31:07.263Z,17.70
2023-08-08T14:37:09.109Z,17.50
2023-08-08T14:43:13.795Z,16.00
2023-08-08T14:49:15.495Z,15.50
2023-08-08T14:55:17.257Z,15.70
2023-08-08T15:01:19.167Z,16.40
2023-08-08T15:07:21.071Z,16.40
2023-08-08T15:13:22.775Z,16.40
2023-08-08T15:19:24.475Z,16.30
2023-08-08T15:25:26.180Z,16.20
2023-08-08T15:31:27.942Z,16.30
2023-08-08T15:37:30.086Z,16.40
2023-08-08T15:43:32.189Z,16.40
2023-08-08T15:49:33.884Z,16.20
2023-08-08T15:55:35.608Z,16.80
2023-08-08T16:01:37.493Z,17.70
2023-08-08T16:07:39.727Z,17.70
2023-08-08T16:13:44.152Z,17.90
2023-08-08T16:19:57.387Z,18.00
2023-08-08T16:26:11.855Z,17.80
2023-08-08T16:32:25.978Z,17.80
2023-08-08T16:39:12.939Z,18.10
2023-08-08T16:45:44.075Z,18.10
2023-08-08T16:58:24.745Z,17.40
2023-08-08T17:04:42.600Z,15.90
2023-08-08T17:11:02.238Z,15.10
2023-08-08T17:17:20.421Z,15.20
2023-08-08T17:23:29.077Z,15.60
2023-08-08T17:29:36.340Z,16.00
2023-08-08T17:35:44.282Z,16.00
2023-08-08T17:42:02.114Z,16.10
2023-08-08T17:48:13.958Z,16.30
2023-08-08T17:54:33.141Z,16.50
2023-08-08T18:00:49.125Z,16.60
2023-08-08T18:07:04.744Z,16.50
2023-08-08T18:13:15.497Z,16.20
2023-08-08T18:19:33.516Z,16.20
2023-08-08T18:25:55.105Z,15.90
2023-08-08T18:32:13.966Z,15.80
2023-08-08T18:38:25.983Z,15.60
2023-08-08T18:44:44.837Z,15.50
2023-08-08T18:51:00.972Z,15.40
2023-08-08T18:57:13.096Z,15.40
2023-08-08T19:03:15.489Z,15.20
2023-08-08T19:09:28.970Z,15.20
2023-08-08T19:15:36.073Z,15.20
2023-08-08T19:21:42.365Z,15.10
2023-08-08T19:27:46.389Z,15.00
2023-08-08T19:34:06.756Z,15.00
2023-08-08T19:40:29.871Z,14.90
2023-08-08T19:46:47.023Z,14.90
2023-08-08T19:53:09.899Z,14.90
2023-08-08T19:59:31.251Z,14.90
2023-08-08T20:05:49.046Z,14.90
2023-08-08T20:11:57.883Z,14.70
2023-08-08T20:18:11.682Z,14.40
2023-08-08T20:24:34.944Z,14.40
2023-08-08T20:30:55.921Z,14.40
2023-08-08T20:37:07.124Z,14.30
2023-08-08T20:43:21.854Z,14.10
2023-08-08T20:49:43.615Z,14.10
2023-08-08T20:56:07.212Z,14.00
2023-08-08T21:02:15.521Z,14.00
2023-08-08T21:08:17.457Z,14.00
2023-08-08T21:14:30.432Z,14.10
2023-08-08T21:20:42.661Z,14.00
2023-08-08T21:27:00.506Z,14.00
2023-08-08T21:33:16.418Z,13.90
2023-08-08T21:39:30.247Z,13.80
2023-08-08T21:46:02.701Z,13.80
2023-08-08T21:52:10.537Z,13.70
2023-08-08T21:58:30.859Z,13.60
2023-08-08T22:04:58.120Z,13.50
2023-08-08T22:11:27.006Z,13.40
2023-08-08T22:24:35.559Z,13.20
2023-08-08T22:30:45.959Z,13.20
2023-08-08T22:37:11.996Z,13.20
2023-08-08T22:43:37.879Z,13.20
2023-08-08T22:49:51.172Z,13.10
2023-08-08T22:56:08.053Z,13.10
2023-08-08T23:02:39.991Z,13.10
2023-08-08T23:08:57.508Z,13.10
2023-08-08T23:21:52.361Z,13.00
2023-08-08T23:28:02.537Z,13.00
2023-08-08T23:34:18.968Z,12.80
2023-08-08T23:40:33.687Z,12.80
2023-08-08T23:46:51.284Z,12.80
2023-08-08T23:53:07.060Z,12.80
2023-08-08T23:59:27.082Z,12.80
